createdAt,value
2022-08-26T03:55:32.127Z,20.41
2022-08-26T03:58:35.202Z,20.43
2022-08-26T04:01:37.423Z,20.38
2022-08-26T04:04:40.410Z,20.41
2022-08-26T04:07:45.338Z,20.41
2022-08-26T04:10:47.858Z,20.48
2022-08-26T04:13:53.317Z,20.45
2022-08-26T04:16:56.377Z,20.47
2022-08-26T04:19:58.523Z,20.46
2022-08-26T04:23:01.496Z,20.46
2022-08-26T04:26:04.525Z,20.54
2022-08-26T04:29:11.035Z,20.59
2022-08-26T04:32:13.141Z,20.63
2022-08-26T04:35:15.534Z,20.63
2022-08-26T04:38:19.910Z,20.67
2022-08-26T04:41:23.677Z,20.70
2022-08-26T04:44:29.463Z,20.74
2022-08-26T04:47:32.494Z,20.78
2022-08-26T04:50:35.081Z,20.89
2022-08-26T04:53:37.632Z,21.00
2022-08-26T04:56:43.119Z,21.15
2022-08-26T04:59:45.560Z,21.17
2022-08-26T05:02:48.246Z,21.20
2022-08-26T05:05:54.358Z,21.25
2022-08-26T05:08:56.598Z,21.33
2022-08-26T05:12:00.843Z,21.42
2022-08-26T05:15:03.090Z,21.43
2022-08-26T05:18:06.973Z,21.49
2022-08-26T05:21:16.834Z,21.54
2022-08-26T05:24:19.214Z,21.58
2022-08-26T05:27:21.728Z,21.65
2022-08-26T05:30:24.173Z,21.70
2022-08-26T05:33:26.325Z,21.77
2022-08-26T05:36:31.177Z,21.86
2022-08-26T05:39:33.792Z,22.00
2022-08-26T05:42:36.721Z,22.10
2022-08-26T05:45:45.889Z,22.15
2022-08-26T05:48:48.798Z,22.25
2022-08-26T05:51:50.884Z,22.34
2022-08-26T05:54:54.230Z,22.40
2022-08-26T05:57:56.305Z,22.60
2022-08-26T06:01:03.602Z,22.83
2022-08-26T06:04:07.426Z,23.04
2022-08-26T06:07:09.948Z,23.23
2022-08-26T06:10:31.697Z,23.29
2022-08-26T06:13:35.046Z,23.44
2022-08-26T06:16:40.878Z,23.51
2022-08-26T06:19:43.212Z,23.63
2022-08-26T06:23:04.021Z,23.71
2022-08-26T06:26:06.600Z,23.73
2022-08-26T06:29:16.373Z,23.81
2022-08-26T06:32:27.230Z,23.92
2022-08-26T06:35:29.550Z,23.97
2022-08-26T06:38:31.697Z,24.07
2022-08-26T06:41:36.630Z,24.08
2022-08-26T06:44:41.568Z,24.23
2022-08-26T06:47:47.107Z,24.25
2022-08-26T06:51:01.738Z,24.30
2022-08-26T06:54:05.930Z,24.37
2022-08-26T06:57:09.614Z,24.66
2022-08-26T07:00:12.920Z,24.73
2022-08-26T07:03:16.091Z,24.85
2022-08-26T07:06:19.594Z,25.00
2022-08-26T07:09:24.175Z,25.09
2022-08-26T07:12:26.758Z,25.10
2022-08-26T07:15:31.202Z,25.12
2022-08-26T07:18:36.012Z,25.31
2022-08-26T07:21:41.454Z,25.40
2022-08-26T07:24:43.893Z,25.41
2022-08-26T07:27:46.401Z,25.41
2022-08-26T07:30:56.734Z,25.43
2022-08-26T07:34:00.549Z,25.62
2022-08-26T07:37:08.746Z,25.65
2022-08-26T07:40:12.121Z,25.72
2022-08-26T07:43:15.816Z,25.76
2022-08-26T07:46:20.785Z,25.89
2022-08-26T07:49:31.138Z,25.94
2022-08-26T07:52:33.311Z,26.05
2022-08-26T07:55:37.381Z,26.03
2022-08-26T07:58:40.244Z,26.21
2022-08-26T08:01:45.167Z,26.27
2022-08-26T08:04:48.632Z,26.33
2022-08-26T08:07:53.683Z,26.45
2022-08-26T08:11:15.987Z,26.44
2022-08-26T08:14:22.018Z,26.48
2022-08-26T08:17:24.787Z,26.70
2022-08-26T08:20:28.326Z,26.76
2022-08-26T08:23:31.492Z,26.78
2022-08-26T08:26:35.171Z,26.88
2022-08-26T08:29:37.515Z,26.86
2022-08-26T08:32:39.634Z,26.93
2022-08-26T08:35:42.644Z,27.06
2022-08-26T08:38:45.741Z,27.12
2022-08-26T08:41:50.935Z,27.27
2022-08-26T08:44:57.174Z,27.35
2022-08-26T08:48:06.867Z,27.42
2022-08-26T08:51:48.140Z,27.44
2022-08-26T08:54:50.491Z,27.40
2022-08-26T08:58:19.155Z,27.55
2022-08-26T09:01:37.636Z,27.74
2022-08-26T09:04:59.353Z,27.91
2022-08-26T09:08:06.753Z,27.93
2022-08-26T09:11:14.798Z,28.11
2022-08-26T09:14:17.640Z,28.08
2022-08-26T09:17:38.796Z,28.19
2022-08-26T09:20:53.384Z,28.26
2022-08-26T09:23:56.630Z,28.26
2022-08-26T09:26:59.440Z,28.29
2022-08-26T09:30:01.565Z,28.33
2022-08-26T09:33:11.114Z,28.37
2022-08-26T09:36:24.810Z,28.50
2022-08-26T09:39:37.795Z,28.67
2022-08-26T09:42:40.097Z,28.73
2022-08-26T09:45:50.070Z,28.77
2022-08-26T09:48:53.334Z,28.80
2022-08-26T09:52:15.002Z,28.74
2022-08-26T09:55:23.706Z,28.81
2022-08-26T09:58:41.887Z,29.03
2022-08-26T10:01:45.032Z,29.17
2022-08-26T10:04:54.155Z,29.21
2022-08-26T10:07:57.816Z,29.28
2022-08-26T10:11:06.138Z,29.33
2022-08-26T10:14:19.061Z,29.41
2022-08-26T10:17:34.120Z,29.45
2022-08-26T10:20:41.675Z,29.55
2022-08-26T10:24:03.498Z,29.58
2022-08-26T10:27:51.348Z,29.81
2022-08-26T10:31:16.649Z,29.95
2022-08-26T10:34:22.241Z,30.15
2022-08-26T10:37:37.177Z,30.14
2022-08-26T10:40:55.097Z,30.20
2022-08-26T10:44:02.666Z,30.28
2022-08-26T10:47:16.334Z,30.20
2022-08-26T10:50:24.777Z,30.12
2022-08-26T10:53:46.629Z,30.28
2022-08-26T10:57:13.446Z,30.36
2022-08-26T11:00:40.256Z,30.42
2022-08-26T11:04:00.479Z,30.53
2022-08-26T11:07:40.849Z,30.49
2022-08-26T11:10:43.081Z,30.54
2022-08-26T11:14:01.164Z,30.59
2022-08-26T11:17:03.465Z,30.74
2022-08-26T11:20:09.175Z,31.02
2022-08-26T11:23:28.197Z,31.38
2022-08-26T11:26:55.033Z,31.90
2022-08-26T11:30:06.960Z,32.01
2022-08-26T11:33:48.887Z,32.39
2022-08-26T11:36:58.139Z,32.82
2022-08-26T11:40:04.619Z,32.50
2022-08-26T11:43:23.443Z,32.53
2022-08-26T11:46:28.901Z,32.67
2022-08-26T11:49:32.869Z,32.46
2022-08-26T11:52:35.841Z,32.67
2022-08-26T11:55:43.373Z,32.51
2022-08-26T11:58:47.766Z,32.09
2022-08-26T12:01:53.370Z,31.96
2022-08-26T12:04:56.393Z,32.20
2022-08-26T12:08:07.301Z,32.30
2022-08-26T12:11:31.140Z,32.51
2022-08-26T12:14:33.958Z,32.60
2022-08-26T12:17:37.063Z,32.46
2022-08-26T12:20:54.257Z,32.32
2022-08-26T12:23:59.303Z,32.36
2022-08-26T12:27:23.653Z,32.45
2022-08-26T12:30:26.420Z,32.46
2022-08-26T12:33:29.245Z,32.59
2022-08-26T12:36:42.874Z,32.60
2022-08-26T12:39:47.868Z,32.55
2022-08-26T12:42:50.389Z,32.46
2022-08-26T12:46:02.042Z,32.41
2022-08-26T12:49:04.462Z,32.44
2022-08-26T12:52:09.640Z,32.43
2022-08-26T12:55:21.850Z,32.43
2022-08-26T12:58:38.824Z,32.21
2022-08-26T13:01:44.253Z,32.15
2022-08-26T13:04:46.464Z,32.20
2022-08-26T13:08:08.634Z,32.25
2022-08-26T13:11:12.797Z,32.25
2022-08-26T13:14:23.827Z,32.28
2022-08-26T13:17:28.354Z,32.15
2022-08-26T13:20:35.275Z,32.19
2022-08-26T13:23:41.917Z,32.37
2022-08-26T13:26:46.969Z,32.42
2022-08-26T13:29:51.087Z,32.48
2022-08-26T13:32:59.642Z,32.32
2022-08-26T13:36:01.803Z,32.33
2022-08-26T13:39:06.066Z,32.35
2022-08-26T13:42:08.933Z,32.32
2022-08-26T13:45:11.571Z,32.39
2022-08-26T13:48:13.627Z,32.42
2022-08-26T13:51:18.484Z,32.30
2022-08-26T13:54:21.183Z,32.25
2022-08-26T13:57:24.643Z,32.20
2022-08-26T14:00:26.758Z,32.22
2022-08-26T14:03:29.146Z,32.20
2022-08-26T14:06:31.586Z,32.07
2022-08-26T14:09:38.226Z,32.20
2022-08-26T14:12:40.513Z,32.23
2022-08-26T14:15:42.849Z,32.17
2022-08-26T14:18:50.027Z,32.22
2022-08-26T14:21:53.040Z,32.15
2022-08-26T14:24:55.197Z,32.22
2022-08-26T14:27:57.534Z,32.13
2022-08-26T14:31:00.113Z,32.13
2022-08-26T14:34:05.603Z,32.08
2022-08-26T14:37:09.216Z,32.00
2022-08-26T14:40:14.311Z,31.98
2022-08-26T14:43:16.396Z,31.95
2022-08-26T14:46:18.805Z,32.02
2022-08-26T14:49:22.382Z,32.17
2022-08-26T14:52:25.408Z,32.22
2022-08-26T14:55:29.452Z,32.16
2022-08-26T14:58:35.571Z,32.24
2022-08-26T15:01:37.745Z,32.56
2022-08-26T15:04:41.146Z,32.70
2022-08-26T15:07:43.263Z,32.87
2022-08-26T15:10:45.603Z,32.98
2022-08-26T15:13:48.232Z,32.97
2022-08-26T15:16:55.796Z,32.66
